sensor_id;sensor_type;location;lat;lon;timestamp;temperature;humidity
66594;DHT22;53450;42.584;23.366;2023-04-12T00:01:00;7.17;68.06
66594;DHT22;53450;42.584;23.366;2023-04-12T00:03:25;7.17;68.56
66594;DHT22;53450;42.584;23.366;2023-04-12T00:05:51;7.15;68.30
66594;DHT22;53450;42.584;23.366;2023-04-12T00:08:21;7.17;67.89
66594;DHT22;53450;42.584;23.366;2023-04-12T00:10:51;7.17;68.14
66594;DHT22;53450;42.584;23.366;2023-04-12T00:13:17;7.12;68.51
66594;DHT22;53450;42.584;23.366;2023-04-12T00:15:44;7.11;68.93
66594;DHT22;53450;42.584;23.366;2023-04-12T00:18:10;7.14;68.62
66594;DHT22;53450;42.584;23.366;2023-04-12T00:20:36;7.11;68.30
66594;DHT22;53450;42.584;23.366;2023-04-12T00:23:02;7.20;68.25
66594;DHT22;53450;42.584;23.366;2023-04-12T00:25:28;7.17;68.53
66594;DHT22;53450;42.584;23.366;2023-04-12T00:27:54;7.07;68.50
66594;DHT22;53450;42.584;23.366;2023-04-12T00:30:21;7.14;68.35
66594;DHT22;53450;42.584;23.366;2023-04-12T00:32:47;7.11;68.55
66594;DHT22;53450;42.584;23.366;2023-04-12T00:35:13;7.11;68.85
66594;DHT22;53450;42.584;23.366;2023-04-12T00:37:38;7.14;69.50
66594;DHT22;53450;42.584;23.366;2023-04-12T00:40:04;7.12;69.81
66594;DHT22;53450;42.584;23.366;2023-04-12T00:42:35;7.10;70.27
66594;DHT22;53450;42.584;23.366;2023-04-12T00:45:01;7.05;70.34
66594;DHT22;53450;42.584;23.366;2023-04-12T00:47:26;7.03;70.20
66594;DHT22;53450;42.584;23.366;2023-04-12T00:49:54;7.10;70.14
66594;DHT22;53450;42.584;23.366;2023-04-12T00:52:21;7.08;70.35
66594;DHT22;53450;42.584;23.366;2023-04-12T00:54:48;7.08;70.62
66594;DHT22;53450;42.584;23.366;2023-04-12T00:57:39;7.04;70.71
66594;DHT22;53450;42.584;23.366;2023-04-12T01:00:06;7.01;70.74
66594;DHT22;53450;42.584;23.366;2023-04-12T01:02:36;7.03;70.86
66594;DHT22;53450;42.584;23.366;2023-04-12T01:05:04;7.00;71.10
66594;DHT22;53450;42.584;23.366;2023-04-12T01:07:44;7.01;71.11
66594;DHT22;53450;42.584;23.366;2023-04-12T01:11:04;7.00;71.29
66594;DHT22;53450;42.584;23.366;2023-04-12T01:13:40;6.96;71.32
66594;DHT22;53450;42.584;23.366;2023-04-12T01:16:32;6.97;71.32
66594;DHT22;53450;42.584;23.366;2023-04-12T01:19:04;6.97;71.24
66594;DHT22;53450;42.584;23.366;2023-04-12T01:24:13;6.93;71.52
66594;DHT22;53450;42.584;23.366;2023-04-12T01:26:46;6.96;71.51
66594;DHT22;53450;42.584;23.366;2023-04-12T01:29:17;6.94;71.41
66594;DHT22;53450;42.584;23.366;2023-04-12T01:32:06;6.93;71.27
66594;DHT22;53450;42.584;23.366;2023-04-12T01:34:59;6.93;71.23
66594;DHT22;53450;42.584;23.366;2023-04-12T01:37:52;6.96;71.39
66594;DHT22;53450;42.584;23.366;2023-04-12T01:40:18;6.96;71.62
66594;DHT22;53450;42.584;23.366;2023-04-12T01:42:44;6.96;71.89
66594;DHT22;53450;42.584;23.366;2023-04-12T01:45:10;6.96;72.11
66594;DHT22;53450;42.584;23.366;2023-04-12T01:47:36;6.94;72.02
66594;DHT22;53450;42.584;23.366;2023-04-12T01:50:11;6.96;72.18
66594;DHT22;53450;42.584;23.366;2023-04-12T01:52:46;6.94;72.14
66594;DHT22;53450;42.584;23.366;2023-04-12T01:55:13;6.99;71.81
66594;DHT22;53450;42.584;23.366;2023-04-12T01:57:43;6.97;72.16
66594;DHT22;53450;42.584;23.366;2023-04-12T02:00:15;6.94;72.05
66594;DHT22;53450;42.584;23.366;2023-04-12T02:02:42;7.00;72.17
66594;DHT22;53450;42.584;23.366;2023-04-12T02:05:09;6.99;71.96
66594;DHT22;53450;42.584;23.366;2023-04-12T02:07:35;6.97;72.10
66594;DHT22;53450;42.584;23.366;2023-04-12T02:10:02;7.00;71.77
66594;DHT22;53450;42.584;23.366;2023-04-12T02:12:52;6.99;71.75
66594;DHT22;53450;42.584;23.366;2023-04-12T02:15:44;6.96;71.67
66594;DHT22;53450;42.584;23.366;2023-04-12T02:18:13;6.96;71.49
66594;DHT22;53450;42.584;23.366;2023-04-12T02:20:44;6.97;71.30
66594;DHT22;53450;42.584;23.366;2023-04-12T02:23:11;6.94;71.35
66594;DHT22;53450;42.584;23.366;2023-04-12T02:25:36;6.99;71.15
66594;DHT22;53450;42.584;23.366;2023-04-12T02:28:04;6.96;71.42
66594;DHT22;53450;42.584;23.366;2023-04-12T02:30:32;6.93;71.79
66594;DHT22;53450;42.584;23.366;2023-04-12T02:32:58;6.91;71.92
66594;DHT22;53450;42.584;23.366;2023-04-12T02:35:30;6.93;72.17
66594;DHT22;53450;42.584;23.366;2023-04-12T02:38:05;6.91;72.13
66594;DHT22;53450;42.584;23.366;2023-04-12T02:40:37;6.97;72.11
66594;DHT22;53450;42.584;23.366;2023-04-12T02:43:10;6.93;72.64
66594;DHT22;53450;42.584;23.366;2023-04-12T02:45:40;6.93;73.04
66594;DHT22;53450;42.584;23.366;2023-04-12T02:48:07;6.93;72.51
66594;DHT22;53450;42.584;23.366;2023-04-12T02:50:34;6.89;72.43
66594;DHT22;53450;42.584;23.366;2023-04-12T02:53:10;6.91;71.29
66594;DHT22;53450;42.584;23.366;2023-04-12T02:55:37;6.90;71.12
66594;DHT22;53450;42.584;23.366;2023-04-12T02:58:05;6.87;71.31
66594;DHT22;53450;42.584;23.366;2023-04-12T03:00:36;6.86;71.51
66594;DHT22;53450;42.584;23.366;2023-04-12T03:03:02;6.90;71.55
66594;DHT22;53450;42.584;23.366;2023-04-12T03:05:29;6.89;71.89
66594;DHT22;53450;42.584;23.366;2023-04-12T03:07:56;6.89;71.94
66594;DHT22;53450;42.584;23.366;2023-04-12T03:10:29;6.91;72.09
66594;DHT22;53450;42.584;23.366;2023-04-12T03:13:02;6.89;72.41
66594;DHT22;53450;42.584;23.366;2023-04-12T03:15:34;6.93;72.56
66594;DHT22;53450;42.584;23.366;2023-04-12T03:18:00;6.97;72.77
66594;DHT22;53450;42.584;23.366;2023-04-12T03:20:30;7.03;72.85
66594;DHT22;53450;42.584;23.366;2023-04-12T03:23:07;7.10;72.78
66594;DHT22;53450;42.584;23.366;2023-04-12T03:25:36;7.12;72.61
66594;DHT22;53450;42.584;23.366;2023-04-12T03:28:22;7.20;72.28
66594;DHT22;53450;42.584;23.366;2023-04-12T03:30:50;7.20;72.04
66594;DHT22;53450;42.584;23.366;2023-04-12T03:33:19;7.25;72.08
66594;DHT22;53450;42.584;23.366;2023-04-12T03:35:46;7.21;72.27
66594;DHT22;53450;42.584;23.366;2023-04-12T03:38:13;7.28;72.39
66594;DHT22;53450;42.584;23.366;2023-04-12T03:40:41;7.24;72.58
66594;DHT22;53450;42.584;23.366;2023-04-12T03:43:08;7.25;71.95
66594;DHT22;53450;42.584;23.366;2023-04-12T03:45:33;7.28;71.98
66594;DHT22;53450;42.584;23.366;2023-04-12T03:48:01;7.21;71.51
66594;DHT22;53450;42.584;23.366;2023-04-12T03:50:29;7.22;71.61
66594;DHT22;53450;42.584;23.366;2023-04-12T03:52:56;7.22;71.35
66594;DHT22;53450;42.584;23.366;2023-04-12T03:55:27;7.21;71.14
66594;DHT22;53450;42.584;23.366;2023-04-12T03:57:53;7.20;71.47
66594;DHT22;53450;42.584;23.366;2023-04-12T04:00:23;7.20;71.47
66594;DHT22;53450;42.584;23.366;2023-04-12T04:03:01;7.21;71.20
66594;DHT22;53450;42.584;23.366;2023-04-12T04:05:30;7.17;71.14
66594;DHT22;53450;42.584;23.366;2023-04-12T04:07:57;7.21;70.60
66594;DHT22;53450;42.584;23.366;2023-04-12T04:10:28;7.25;70.40
66594;DHT22;53450;42.584;23.366;2023-04-12T04:12:55;7.25;70.43
66594;DHT22;53450;42.584;23.366;2023-04-12T04:15:21;7.25;69.45
66594;DHT22;53450;42.584;23.366;2023-04-12T04:17:47;7.28;69.17
66594;DHT22;53450;42.584;23.366;2023-04-12T04:20:15;7.28;69.32
66594;DHT22;53450;42.584;23.366;2023-04-12T04:22:46;7.31;68.21
66594;DHT22;53450;42.584;23.366;2023-04-12T04:25:14;7.31;67.75
66594;DHT22;53450;42.584;23.366;2023-04-12T04:27:42;7.38;67.44
66594;DHT22;53450;42.584;23.366;2023-04-12T04:30:12;7.36;67.59
66594;DHT22;53450;42.584;23.366;2023-04-12T04:32:43;7.34;67.87
66594;DHT22;53450;42.584;23.366;2023-04-12T04:35:09;7.31;68.40
66594;DHT22;53450;42.584;23.366;2023-04-12T04:37:47;7.27;68.75
66594;DHT22;53450;42.584;23.366;2023-04-12T04:40:17;7.28;68.08
66594;DHT22;53450;42.584;23.366;2023-04-12T04:42:45;7.30;67.61
66594;DHT22;53450;42.584;23.366;2023-04-12T04:45:21;7.27;66.17
66594;DHT22;53450;42.584;23.366;2023-04-12T04:47:54;7.27;65.66
66594;DHT22;53450;42.584;23.366;2023-04-12T04:50:21;7.28;65.55
66594;DHT22;53450;42.584;23.366;2023-04-12T04:52:49;7.25;65.48
66594;DHT22;53450;42.584;23.366;2023-04-12T04:55:16;7.27;65.48
66594;DHT22;53450;42.584;23.366;2023-04-12T04:57:44;7.25;64.73
66594;DHT22;53450;42.584;23.366;2023-04-12T05:00:35;7.22;65.72
66594;DHT22;53450;42.584;23.366;2023-04-12T05:03:26;7.15;65.89
66594;DHT22;53450;42.584;23.366;2023-04-12T05:06:20;7.14;66.25
66594;DHT22;53450;42.584;23.366;2023-04-12T05:08:45;7.08;66.56
66594;DHT22;53450;42.584;23.366;2023-04-12T05:11:14;7.14;66.82
66594;DHT22;53450;42.584;23.366;2023-04-12T05:13:40;7.14;66.81
66594;DHT22;53450;42.584;23.366;2023-04-12T05:16:06;7.12;66.67
66594;DHT22;53450;42.584;23.366;2023-04-12T05:18:32;7.20;65.69
66594;DHT22;53450;42.584;23.366;2023-04-12T05:21:04;7.21;65.95
66594;DHT22;53450;42.584;23.366;2023-04-12T05:23:41;7.22;65.64
66594;DHT22;53450;42.584;23.366;2023-04-12T05:26:10;7.21;65.42
66594;DHT22;53450;42.584;23.366;2023-04-12T05:28:36;7.18;65.52
66594;DHT22;53450;42.584;23.366;2023-04-12T05:31:02;7.15;65.15
66594;DHT22;53450;42.584;23.366;2023-04-12T05:33:35;7.14;65.22
66594;DHT22;53450;42.584;23.366;2023-04-12T05:36:02;7.20;64.99
66594;DHT22;53450;42.584;23.366;2023-04-12T05:38:29;7.21;64.72
66594;DHT22;53450;42.584;23.366;2023-04-12T05:40:58;7.30;64.07
66594;DHT22;53450;42.584;23.366;2023-04-12T05:43:49;7.31;64.01
66594;DHT22;53450;42.584;23.366;2023-04-12T05:46:15;7.32;63.50
66594;DHT22;53450;42.584;23.366;2023-04-12T05:48:43;7.34;63.49
66594;DHT22;53450;42.584;23.366;2023-04-12T05:51:09;7.34;62.67
66594;DHT22;53450;42.584;23.366;2023-04-12T05:53:35;7.41;62.99
66594;DHT22;53450;42.584;23.366;2023-04-12T05:56:03;7.51;62.49
66594;DHT22;53450;42.584;23.366;2023-04-12T05:58:29;7.56;62.66
66594;DHT22;53450;42.584;23.366;2023-04-12T06:00:54;7.65;62.44
66594;DHT22;53450;42.584;23.366;2023-04-12T06:03:21;7.72;61.47
66594;DHT22;53450;42.584;23.366;2023-04-12T06:05:49;7.90;61.27
66594;DHT22;53450;42.584;23.366;2023-04-12T06:08:17;7.94;61.92
66594;DHT22;53450;42.584;23.366;2023-04-12T06:10:43;7.93;62.23
66594;DHT22;53450;42.584;23.366;2023-04-12T06:13:33;7.73;62.24
66594;DHT22;53450;42.584;23.366;2023-04-12T06:15:59;7.66;63.32
66594;DHT22;53450;42.584;23.366;2023-04-12T06:18:24;7.38;64.06
66594;DHT22;53450;42.584;23.366;2023-04-12T06:20:50;7.30;64.59
66594;DHT22;53450;42.584;23.366;2023-04-12T06:23:16;7.04;64.89
66594;DHT22;53450;42.584;23.366;2023-04-12T06:25:43;7.07;66.30
66594;DHT22;53450;42.584;23.366;2023-04-12T06:28:09;6.91;66.93
66594;DHT22;53450;42.584;23.366;2023-04-12T06:30:41;6.63;69.51
66594;DHT22;53450;42.584;23.366;2023-04-12T06:33:07;6.52;71.89
66594;DHT22;53450;42.584;23.366;2023-04-12T06:35:32;6.29;74.05
66594;DHT22;53450;42.584;23.366;2023-04-12T06:37:58;6.18;73.96
66594;DHT22;53450;42.584;23.366;2023-04-12T06:40:24;6.05;73.79
66594;DHT22;53450;42.584;23.366;2023-04-12T06:42:49;6.12;74.42
66594;DHT22;53450;42.584;23.366;2023-04-12T06:45:20;6.25;73.52
66594;DHT22;53450;42.584;23.366;2023-04-12T06:47:46;6.41;73.88
66594;DHT22;53450;42.584;23.366;2023-04-12T06:50:11;6.60;72.48
66594;DHT22;53450;42.584;23.366;2023-04-12T06:52:37;6.73;70.40
66594;DHT22;53450;42.584;23.366;2023-04-12T06:55:03;6.80;69.58
66594;DHT22;53450;42.584;23.366;2023-04-12T06:57:29;6.81;69.11
66594;DHT22;53450;42.584;23.366;2023-04-12T06:59:54;6.76;68.92
66594;DHT22;53450;42.584;23.366;2023-04-12T07:02:20;6.76;68.24
66594;DHT22;53450;42.584;23.366;2023-04-12T07:04:46;6.66;68.77
66594;DHT22;53450;42.584;23.366;2023-04-12T07:07:12;6.65;68.78
66594;DHT22;53450;42.584;23.366;2023-04-12T07:09:37;6.76;68.13
66594;DHT22;53450;42.584;23.366;2023-04-12T07:12:03;6.89;67.74
66594;DHT22;53450;42.584;23.366;2023-04-12T07:14:28;6.99;65.63
66594;DHT22;53450;42.584;23.366;2023-04-12T07:16:54;7.10;66.20
66594;DHT22;53450;42.584;23.366;2023-04-12T07:19:19;7.14;65.93
66594;DHT22;53450;42.584;23.366;2023-04-12T07:21:45;7.30;66.10
66594;DHT22;53450;42.584;23.366;2023-04-12T07:24:36;7.45;65.13
66594;DHT22;53450;42.584;23.366;2023-04-12T07:27:27;7.56;64.68
66594;DHT22;53450;42.584;23.366;2023-04-12T07:29:53;7.75;63.24
66594;DHT22;53450;42.584;23.366;2023-04-12T07:32:18;7.90;64.84
66594;DHT22;53450;42.584;23.366;2023-04-12T07:34:44;7.85;63.17
66594;DHT22;53450;42.584;23.366;2023-04-12T07:37:10;7.56;65.08
66594;DHT22;53450;42.584;23.366;2023-04-12T07:39:36;7.59;65.10
66594;DHT22;53450;42.584;23.366;2023-04-12T07:42:04;7.62;64.50
66594;DHT22;53450;42.584;23.366;2023-04-12T07:44:30;7.85;63.71
66594;DHT22;53450;42.584;23.366;2023-04-12T07:46:56;8.14;63.19
66594;DHT22;53450;42.584;23.366;2023-04-12T07:49:21;8.30;61.28
66594;DHT22;53450;42.584;23.366;2023-04-12T07:51:47;8.24;61.54
66594;DHT22;53450;42.584;23.366;2023-04-12T07:54:12;8.34;62.21
66594;DHT22;53450;42.584;23.366;2023-04-12T07:56:38;8.40;60.40
66594;DHT22;53450;42.584;23.366;2023-04-12T07:59:03;8.49;60.79
66594;DHT22;53450;42.584;23.366;2023-04-12T08:01:29;8.51;59.18
66594;DHT22;53450;42.584;23.366;2023-04-12T08:03:55;8.24;59.13
66594;DHT22;53450;42.584;23.366;2023-04-12T08:06:20;8.37;60.04
66594;DHT22;53450;42.584;23.366;2023-04-12T08:08:46;8.64;60.55
66594;DHT22;53450;42.584;23.366;2023-04-12T08:11:11;8.67;59.60
66594;DHT22;53450;42.584;23.366;2023-04-12T08:14:02;8.72;59.96
66594;DHT22;53450;42.584;23.366;2023-04-12T08:16:28;8.57;60.04
66594;DHT22;53450;42.584;23.366;2023-04-12T08:18:53;8.71;60.87
66594;DHT22;53450;42.584;23.366;2023-04-12T08:21:19;8.76;60.67
66594;DHT22;53450;42.584;23.366;2023-04-12T08:23:44;8.67;58.85
66594;DHT22;53450;42.584;23.366;2023-04-12T08:26:10;8.37;56.17
66594;DHT22;53450;42.584;23.366;2023-04-12T08:28:36;8.34;56.43
66594;DHT22;53450;42.584;23.366;2023-04-12T08:31:02;8.28;55.89
66594;DHT22;53450;42.584;23.366;2023-04-12T08:33:27;8.40;57.29
66594;DHT22;53450;42.584;23.366;2023-04-12T08:35:53;8.55;56.17
66594;DHT22;53450;42.584;23.366;2023-04-12T08:38:19;8.64;55.68
66594;DHT22;53450;42.584;23.366;2023-04-12T08:40:44;8.93;57.56
66594;DHT22;53450;42.584;23.366;2023-04-12T08:43:36;8.96;55.14
66594;DHT22;53450;42.584;23.366;2023-04-12T08:46:27;8.95;55.63
66594;DHT22;53450;42.584;23.366;2023-04-12T08:48:54;9.00;54.78
66594;DHT22;53450;42.584;23.366;2023-04-12T08:51:21;9.12;54.74
66594;DHT22;53450;42.584;23.366;2023-04-12T08:53:47;9.03;54.11
66594;DHT22;53450;42.584;23.366;2023-04-12T08:56:16;9.41;54.52
66594;DHT22;53450;42.584;23.366;2023-04-12T08:58:45;9.38;52.38
66594;DHT22;53450;42.584;23.366;2023-04-12T09:01:14;9.34;52.52
66594;DHT22;53450;42.584;23.366;2023-04-12T09:03:41;9.51;52.14
66594;DHT22;53450;42.584;23.366;2023-04-12T09:06:07;9.68;50.90
66594;DHT22;53450;42.584;23.366;2023-04-12T09:08:33;9.81;50.83
66594;DHT22;53450;42.584;23.366;2023-04-12T09:10:58;9.95;49.72
66594;DHT22;53450;42.584;23.366;2023-04-12T09:13:34;9.79;50.74
66594;DHT22;53450;42.584;23.366;2023-04-12T09:16:01;9.82;51.16
66594;DHT22;53450;42.584;23.366;2023-04-12T09:18:52;10.16;49.47
66594;DHT22;53450;42.584;23.366;2023-04-12T09:21:18;10.25;49.70
66594;DHT22;53450;42.584;23.366;2023-04-12T09:24:04;10.12;49.69
66594;DHT22;53450;42.584;23.366;2023-04-12T09:26:33;10.30;48.83
66594;DHT22;53450;42.584;23.366;2023-04-12T09:28:59;9.85;49.22
66594;DHT22;53450;42.584;23.366;2023-04-12T09:31:25;9.41;50.51
66594;DHT22;53450;42.584;23.366;2023-04-12T09:33:50;9.82;50.64
66594;DHT22;53450;42.584;23.366;2023-04-12T09:36:16;9.64;49.43
66594;DHT22;53450;42.584;23.366;2023-04-12T09:38:59;9.71;49.04
66594;DHT22;53450;42.584;23.366;2023-04-12T09:41:26;9.85;48.65
66594;DHT22;53450;42.584;23.366;2023-04-12T09:43:53;9.85;46.60
66594;DHT22;53450;42.584;23.366;2023-04-12T09:46:18;9.77;46.84
66594;DHT22;53450;42.584;23.366;2023-04-12T09:48:49;9.94;48.01
66594;DHT22;53450;42.584;23.366;2023-04-12T09:51:32;9.52;47.80
66594;DHT22;53450;42.584;23.366;2023-04-12T09:54:03;9.68;48.77
66594;DHT22;53450;42.584;23.366;2023-04-12T09:56:35;9.57;48.21
66594;DHT22;53450;42.584;23.366;2023-04-12T09:59:03;9.85;46.35
66594;DHT22;53450;42.584;23.366;2023-04-12T10:01:33;10.13;45.76
66594;DHT22;53450;42.584;23.366;2023-04-12T10:04:00;10.39;46.73
66594;DHT22;53450;42.584;23.366;2023-04-12T10:06:26;10.28;45.01
66594;DHT22;53450;42.584;23.366;2023-04-12T10:08:53;10.36;45.62
66594;DHT22;53450;42.584;23.366;2023-04-12T10:11:18;10.15;46.29
66594;DHT22;53450;42.584;23.366;2023-04-12T10:13:44;10.23;46.25
66594;DHT22;53450;42.584;23.366;2023-04-12T10:16:10;10.35;42.68
66594;DHT22;53450;42.584;23.366;2023-04-12T10:18:37;10.29;42.78
66594;DHT22;53450;42.584;23.366;2023-04-12T10:21:27;10.50;40.20
66594;DHT22;53450;42.584;23.366;2023-04-12T10:24:26;10.67;38.08
66594;DHT22;53450;42.584;23.366;2023-04-12T10:26:54;10.78;38.03
66594;DHT22;53450;42.584;23.366;2023-04-12T10:29:33;11.10;38.02
66594;DHT22;53450;42.584;23.366;2023-04-12T10:32:21;10.78;38.12
66594;DHT22;53450;42.584;23.366;2023-04-12T10:37:17;10.85;39.56
66594;DHT22;53450;42.584;23.366;2023-04-12T10:39:44;11.08;39.87
66594;DHT22;53450;42.584;23.366;2023-04-12T10:42:29;11.33;38.42
66594;DHT22;53450;42.584;23.366;2023-04-12T10:48:37;10.95;41.15
66594;DHT22;53450;42.584;23.366;2023-04-12T10:51:16;11.14;40.79
66594;DHT22;53450;42.584;23.366;2023-04-12T10:53:45;11.04;41.10
66594;DHT22;53450;42.584;23.366;2023-04-12T10:59:00;11.62;39.44
66594;DHT22;53450;42.584;23.366;2023-04-12T11:01:29;11.45;36.84
66594;DHT22;53450;42.584;23.366;2023-04-12T11:04:18;11.33;37.87
66594;DHT22;53450;42.584;23.366;2023-04-12T11:06:58;11.24;35.88
66594;DHT22;53450;42.584;23.366;2023-04-12T11:09:56;10.71;35.16
66594;DHT22;53450;42.584;23.366;2023-04-12T11:12:34;11.07;36.36
66594;DHT22;53450;42.584;23.366;2023-04-12T11:15:00;10.93;34.94
66594;DHT22;53450;42.584;23.366;2023-04-12T11:17:52;10.88;34.62
66594;DHT22;53450;42.584;23.366;2023-04-12T11:20:18;11.21;35.97
66594;DHT22;53450;42.584;23.366;2023-04-12T11:22:45;11.14;35.01
66594;DHT22;53450;42.584;23.366;2023-04-12T11:25:15;10.94;34.75
66594;DHT22;53450;42.584;23.366;2023-04-12T11:27:48;11.15;33.59
66594;DHT22;53450;42.584;23.366;2023-04-12T11:30:14;11.52;33.21
66594;DHT22;53450;42.584;23.366;2023-04-12T11:32:43;11.36;31.18
66594;DHT22;53450;42.584;23.366;2023-04-12T11:35:09;11.25;32.33
66594;DHT22;53450;42.584;23.366;2023-04-12T11:37:36;11.38;32.09
66594;DHT22;53450;42.584;23.366;2023-04-12T11:40:03;11.12;33.07
66594;DHT22;53450;42.584;23.366;2023-04-12T11:44:17;11.51;32.65
66594;DHT22;53450;42.584;23.366;2023-04-12T11:46:49;11.39;30.56
66594;DHT22;53450;42.584;23.366;2023-04-12T11:49:19;11.25;30.68
66594;DHT22;53450;42.584;23.366;2023-04-12T11:51:45;11.35;31.47
66594;DHT22;53450;42.584;23.366;2023-04-12T11:54:11;11.26;31.10
66594;DHT22;53450;42.584;23.366;2023-04-12T11:56:38;11.21;30.77
66594;DHT22;53450;42.584;23.366;2023-04-12T11:59:04;11.10;30.09
66594;DHT22;53450;42.584;23.366;2023-04-12T12:01:30;11.40;31.16
66594;DHT22;53450;42.584;23.366;2023-04-12T12:03:59;11.39;30.39
66594;DHT22;53450;42.584;23.366;2023-04-12T12:06:25;11.21;30.96
66594;DHT22;53450;42.584;23.366;2023-04-12T12:08:52;11.38;31.43
66594;DHT22;53450;42.584;23.366;2023-04-12T12:11:22;11.38;31.69
66594;DHT22;53450;42.584;23.366;2023-04-12T12:13:54;11.45;30.88
66594;DHT22;53450;42.584;23.366;2023-04-12T12:16:28;11.62;31.51
66594;DHT22;53450;42.584;23.366;2023-04-12T12:18:54;11.24;31.82
66594;DHT22;53450;42.584;23.366;2023-04-12T12:21:20;11.46;32.29
66594;DHT22;53450;42.584;23.366;2023-04-12T12:23:47;11.53;31.60
66594;DHT22;53450;42.584;23.366;2023-04-12T12:26:26;11.49;31.93
66594;DHT22;53450;42.584;23.366;2023-04-12T12:31:02;11.47;33.45
66594;DHT22;53450;42.584;23.366;2023-04-12T12:33:37;11.58;32.74
66594;DHT22;53450;42.584;23.366;2023-04-12T12:36:04;11.65;33.61
66594;DHT22;53450;42.584;23.366;2023-04-12T12:38:37;11.86;33.45
66594;DHT22;53450;42.584;23.366;2023-04-12T12:41:16;11.33;33.78
66594;DHT22;53450;42.584;23.366;2023-04-12T12:43:47;11.43;34.27
66594;DHT22;53450;42.584;23.366;2023-04-12T12:46:15;11.36;33.69
66594;DHT22;53450;42.584;23.366;2023-04-12T12:48:45;11.33;32.40
66594;DHT22;53450;42.584;23.366;2023-04-12T12:51:13;11.53;32.68
66594;DHT22;53450;42.584;23.366;2023-04-12T12:53:39;11.29;33.38
66594;DHT22;53450;42.584;23.366;2023-04-12T12:56:30;11.32;34.27
66594;DHT22;53450;42.584;23.366;2023-04-12T12:58:56;11.47;34.63
66594;DHT22;53450;42.584;23.366;2023-04-12T13:01:21;11.49;33.56
66594;DHT22;53450;42.584;23.366;2023-04-12T13:03:47;11.46;32.30
66594;DHT22;53450;42.584;23.366;2023-04-12T13:06:12;11.59;31.98
66594;DHT22;53450;42.584;23.366;2023-04-12T13:08:38;11.26;30.48
66594;DHT22;53450;42.584;23.366;2023-04-12T13:11:04;10.98;32.68
66594;DHT22;53450;42.584;23.366;2023-04-12T13:13:30;11.11;32.35
66594;DHT22;53450;42.584;23.366;2023-04-12T13:15:55;11.26;33.06
66594;DHT22;53450;42.584;23.366;2023-04-12T13:18:21;11.14;32.85
66594;DHT22;53450;42.584;23.366;2023-04-12T13:20:46;11.35;33.37
66594;DHT22;53450;42.584;23.366;2023-04-12T13:23:13;11.25;33.19
66594;DHT22;53450;42.584;23.366;2023-04-12T13:25:38;11.14;34.21
66594;DHT22;53450;42.584;23.366;2023-04-12T13:28:04;11.24;34.66
66594;DHT22;53450;42.584;23.366;2023-04-12T13:30:30;11.38;34.45
66594;DHT22;53450;42.584;23.366;2023-04-12T13:32:55;11.14;34.00
66594;DHT22;53450;42.584;23.366;2023-04-12T13:35:21;11.26;34.47
66594;DHT22;53450;42.584;23.366;2023-04-12T13:37:47;11.00;35.10
66594;DHT22;53450;42.584;23.366;2023-04-12T13:40:12;11.03;35.05
66594;DHT22;53450;42.584;23.366;2023-04-12T13:42:38;11.29;34.62
66594;DHT22;53450;42.584;23.366;2023-04-12T13:45:04;11.03;34.65
66594;DHT22;53450;42.584;23.366;2023-04-12T13:47:39;11.25;35.15
66594;DHT22;53450;42.584;23.366;2023-04-12T13:50:05;11.18;34.96
66594;DHT22;53450;42.584;23.366;2023-04-12T13:52:31;11.12;36.87
66594;DHT22;53450;42.584;23.366;2023-04-12T13:54:57;11.25;36.35
66594;DHT22;53450;42.584;23.366;2023-04-12T13:57:24;11.35;36.02
66594;DHT22;53450;42.584;23.366;2023-04-12T13:59:49;11.22;34.88
66594;DHT22;53450;42.584;23.366;2023-04-12T14:02:15;11.28;34.82
66594;DHT22;53450;42.584;23.366;2023-04-12T14:04:51;11.11;34.26
66594;DHT22;53450;42.584;23.366;2023-04-12T14:07:18;11.07;35.26
66594;DHT22;53450;42.584;23.366;2023-04-12T14:09:43;11.25;35.88
66594;DHT22;53450;42.584;23.366;2023-04-12T14:12:09;11.40;35.89
66594;DHT22;53450;42.584;23.366;2023-04-12T14:14:37;11.40;35.49
66594;DHT22;53450;42.584;23.366;2023-04-12T14:17:02;11.39;34.57
66594;DHT22;53450;42.584;23.366;2023-04-12T14:19:28;11.24;35.72
66594;DHT22;53450;42.584;23.366;2023-04-12T14:21:54;11.16;35.46
66594;DHT22;53450;42.584;23.366;2023-04-12T14:24:20;11.16;36.05
66594;DHT22;53450;42.584;23.366;2023-04-12T14:26:46;11.28;35.94
66594;DHT22;53450;42.584;23.366;2023-04-12T14:29:13;11.35;35.51
66594;DHT22;53450;42.584;23.366;2023-04-12T14:31:39;11.43;35.60
66594;DHT22;53450;42.584;23.366;2023-04-12T14:34:05;11.29;36.24
66594;DHT22;53450;42.584;23.366;2023-04-12T14:36:33;11.21;36.38
66594;DHT22;53450;42.584;23.366;2023-04-12T14:38:58;11.22;36.32
66594;DHT22;53450;42.584;23.366;2023-04-12T14:41:24;11.15;36.47
66594;DHT22;53450;42.584;23.366;2023-04-12T14:43:50;11.05;36.19
66594;DHT22;53450;42.584;23.366;2023-04-12T14:46:16;11.12;35.92
66594;DHT22;53450;42.584;23.366;2023-04-12T14:48:42;11.05;36.10
66594;DHT22;53450;42.584;23.366;2023-04-12T14:51:09;11.21;36.57
66594;DHT22;53450;42.584;23.366;2023-04-12T14:53:35;11.25;37.16
66594;DHT22;53450;42.584;23.366;2023-04-12T14:56:00;11.04;36.45
66594;DHT22;53450;42.584;23.366;2023-04-12T14:58:29;11.19;36.53
66594;DHT22;53450;42.584;23.366;2023-04-12T15:00:56;11.07;35.73
66594;DHT22;53450;42.584;23.366;2023-04-12T15:03:23;10.98;36.21
66594;DHT22;53450;42.584;23.366;2023-04-12T15:05:50;11.16;36.46
66594;DHT22;53450;42.584;23.366;2023-04-12T15:08:16;11.05;36.56
66594;DHT22;53450;42.584;23.366;2023-04-12T15:10:42;11.11;36.95
66594;DHT22;53450;42.584;23.366;2023-04-12T15:13:09;10.88;36.76
66594;DHT22;53450;42.584;23.366;2023-04-12T15:15:34;10.98;36.78
66594;DHT22;53450;42.584;23.366;2023-04-12T15:18:00;11.22;35.64
66594;DHT22;53450;42.584;23.366;2023-04-12T15:20:27;11.10;36.31
66594;DHT22;53450;42.584;23.366;2023-04-12T15:22:53;11.03;36.33
66594;DHT22;53450;42.584;23.366;2023-04-12T15:25:19;10.90;37.16
66594;DHT22;53450;42.584;23.366;2023-04-12T15:27:46;10.35;37.36
66594;DHT22;53450;42.584;23.366;2023-04-12T15:30:12;10.22;37.20
66594;DHT22;53450;42.584;23.366;2023-04-12T15:32:40;10.06;38.19
66594;DHT22;53450;42.584;23.366;2023-04-12T15:35:06;10.20;38.22
66594;DHT22;53450;42.584;23.366;2023-04-12T15:37:33;10.23;37.70
66594;DHT22;53450;42.584;23.366;2023-04-12T15:40:03;10.43;38.10
66594;DHT22;53450;42.584;23.366;2023-04-12T15:42:48;10.46;38.02
66594;DHT22;53450;42.584;23.366;2023-04-12T15:45:14;10.50;38.27
66594;DHT22;53450;42.584;23.366;2023-04-12T15:47:39;10.49;38.04
66594;DHT22;53450;42.584;23.366;2023-04-12T15:50:06;10.39;38.83
66594;DHT22;53450;42.584;23.366;2023-04-12T15:52:32;10.35;38.96
66594;DHT22;53450;42.584;23.366;2023-04-12T15:54:58;10.08;38.89